createdAt,value
2022-08-30T00:00:38.639Z,0.00
2022-08-30T00:01:38.637Z,0.00
2022-08-30T00:02:38.795Z,0.00
2022-08-30T00:03:38.727Z,0.00
2022-08-30T00:04:38.623Z,0.00
2022-08-30T00:05:38.596Z,0.00
2022-08-30T00:06:38.581Z,0.00
2022-08-30T00:07:38.578Z,0.00
2022-08-30T00:08:38.574Z,0.00
2022-08-30T00:09:38.576Z,0.00
2022-08-30T00:10:38.584Z,0.00
2022-08-30T00:11:38.593Z,0.00
2022-08-30T00:12:38.598Z,0.00
2022-08-30T00:13:38.543Z,0.00
2022-08-30T00:14:38.561Z,0.00
2022-08-30T00:15:38.579Z,0.00
2022-08-30T00:16:38.578Z,0.00
2022-08-30T00:17:38.518Z,0.00
2022-08-30T00:18:38.494Z,0.00
2022-08-30T00:19:38.482Z,0.00
2022-08-30T00:20:38.487Z,0.00
2022-08-30T00:21:38.490Z,0.00
2022-08-30T00:22:38.486Z,0.00
2022-08-30T00:23:38.451Z,0.00
2022-08-30T00:24:38.451Z,0.00
2022-08-30T00:25:38.443Z,0.00
2022-08-30T00:26:38.430Z,0.00
2022-08-30T00:27:38.428Z,0.00
2022-08-30T00:28:38.438Z,0.00
2022-08-30T00:29:38.419Z,0.00
2022-08-30T00:30:38.425Z,0.00
2022-08-30T00:31:38.484Z,0.00
2022-08-30T00:32:38.372Z,0.00
2022-08-30T00:33:38.379Z,0.00
2022-08-30T00:34:38.359Z,0.00
2022-08-30T00:35:38.366Z,0.00
2022-08-30T00:36:38.372Z,0.00
2022-08-30T00:37:38.340Z,0.00
2022-08-30T00:38:38.354Z,0.00
2022-08-30T00:39:38.321Z,0.00
2022-08-30T00:40:38.393Z,0.00
2022-08-30T00:41:38.318Z,0.00
2022-08-30T00:43:14.298Z,0.00
2022-08-30T00:43:39.316Z,0.00
2022-08-30T00:44:38.289Z,0.00
2022-08-30T00:45:38.271Z,0.00
2022-08-30T00:46:38.380Z,0.00
2022-08-30T00:47:38.266Z,0.00
2022-08-30T00:48:38.281Z,0.00
2022-08-30T00:49:38.240Z,0.00
2022-08-30T00:50:38.232Z,0.00
2022-08-30T00:51:38.255Z,0.00
2022-08-30T00:52:38.231Z,0.00
2022-08-30T00:53:38.213Z,0.00
2022-08-30T00:54:38.222Z,0.00
2022-08-30T00:55:39.054Z,0.00
2022-08-30T00:56:38.186Z,0.00
2022-08-30T00:57:38.201Z,0.00
2022-08-30T00:58:38.179Z,0.00
2022-08-30T00:59:38.176Z,0.00
2022-08-30T01:00:38.157Z,0.00
2022-08-30T01:01:38.242Z,0.00
2022-08-30T01:02:38.240Z,0.00
2022-08-30T01:03:38.222Z,0.00
2022-08-30T01:04:38.132Z,0.00
2022-08-30T01:05:38.129Z,0.00
2022-08-30T01:06:38.116Z,0.00
2022-08-30T01:07:38.108Z,0.00
2022-08-30T01:08:38.125Z,0.00
2022-08-30T01:09:38.123Z,0.00
2022-08-30T01:10:38.094Z,0.00
2022-08-30T01:11:38.075Z,0.00
2022-08-30T01:12:38.117Z,0.00
2022-08-30T01:13:38.083Z,0.00
2022-08-30T01:14:38.050Z,0.00
2022-08-30T01:15:38.056Z,0.00
2022-08-30T01:16:38.032Z,0.00
2022-08-30T01:17:38.031Z,0.00
2022-08-30T01:18:38.022Z,0.00
2022-08-30T01:19:38.034Z,0.00
2022-08-30T01:20:38.315Z,0.00
2022-08-30T01:21:37.996Z,0.00
2022-08-30T01:22:37.989Z,0.00
2022-08-30T01:23:38.352Z,0.00
2022-08-30T01:24:37.971Z,0.00
2022-08-30T01:25:37.990Z,0.00
2022-08-30T01:26:37.979Z,0.00
2022-08-30T01:27:37.948Z,0.00
2022-08-30T01:28:37.973Z,0.00
2022-08-30T01:29:37.933Z,0.00
2022-08-30T01:30:38.017Z,0.00
2022-08-30T01:31:37.912Z,0.00
2022-08-30T01:32:37.924Z,0.00
2022-08-30T01:33:37.895Z,0.00
2022-08-30T01:34:37.882Z,0.00
2022-08-30T01:35:37.873Z,0.00
2022-08-30T01:36:38.007Z,0.00
2022-08-30T01:37:38.915Z,0.00
2022-08-30T01:38:37.854Z,0.00
2022-08-30T01:39:37.860Z,0.00
2022-08-30T01:40:37.872Z,0.00
2022-08-30T01:41:37.846Z,0.00
2022-08-30T01:42:37.825Z,0.00
2022-08-30T01:43:37.812Z,0.00
2022-08-30T01:44:37.812Z,0.00
2022-08-30T01:45:37.811Z,0.00
2022-08-30T01:46:37.778Z,0.00
2022-08-30T01:47:37.926Z,0.00
2022-08-30T01:48:37.764Z,0.00
2022-08-30T01:49:37.761Z,0.00
2022-08-30T01:50:37.754Z,0.00
2022-08-30T01:51:37.750Z,0.00
2022-08-30T01:52:37.766Z,0.00
2022-08-30T01:53:37.754Z,0.00
2022-08-30T01:54:38.142Z,0.00
2022-08-30T01:55:37.716Z,0.00
2022-08-30T01:56:37.705Z,0.00
2022-08-30T01:57:37.697Z,0.00
2022-08-30T01:58:37.718Z,0.00
2022-08-30T01:59:37.678Z,0.00
2022-08-30T02:00:37.664Z,0.00
2022-08-30T02:01:37.694Z,0.00
2022-08-30T02:02:37.651Z,0.00
2022-08-30T02:03:37.690Z,0.00
2022-08-30T02:04:37.670Z,0.00
2022-08-30T02:05:37.636Z,0.00
2022-08-30T02:06:37.654Z,0.00
2022-08-30T02:07:38.264Z,0.00
2022-08-30T02:08:37.615Z,0.00
2022-08-30T02:09:37.591Z,0.00
2022-08-30T02:10:37.597Z,0.00
2022-08-30T02:11:37.583Z,0.00
2022-08-30T02:12:37.614Z,0.00
2022-08-30T02:13:37.567Z,0.00
2022-08-30T02:14:37.599Z,0.00
2022-08-30T02:15:41.451Z,0.00
2022-08-30T02:16:37.578Z,0.00
2022-08-30T02:17:37.537Z,0.00
2022-08-30T02:18:37.604Z,0.00
2022-08-30T02:19:37.520Z,0.00
2022-08-30T02:20:37.525Z,0.00
2022-08-30T02:21:37.508Z,0.00
2022-08-30T02:22:37.498Z,0.00
2022-08-30T02:23:37.485Z,0.00
2022-08-30T02:24:37.515Z,0.00
2022-08-30T02:25:37.498Z,0.00
2022-08-30T02:26:37.462Z,0.00
2022-08-30T02:27:37.452Z,0.00
2022-08-30T02:28:42.875Z,0.00
2022-08-30T02:29:38.433Z,0.00
2022-08-30T02:30:37.514Z,0.00
2022-08-30T02:31:37.448Z,0.00
2022-08-30T02:32:37.446Z,0.00
2022-08-30T02:33:37.414Z,0.00
2022-08-30T02:34:37.432Z,0.00
2022-08-30T02:35:37.393Z,0.00
2022-08-30T02:36:37.383Z,0.00
2022-08-30T02:37:37.383Z,0.00
2022-08-30T02:38:37.393Z,0.00
2022-08-30T02:39:37.359Z,0.00
2022-08-30T02:40:37.403Z,0.00
2022-08-30T02:41:37.339Z,0.00
2022-08-30T02:42:37.351Z,0.00
2022-08-30T02:43:37.327Z,0.00
2022-08-30T02:44:37.334Z,0.00
2022-08-30T02:45:37.328Z,0.00
2022-08-30T02:46:37.300Z,0.00
2022-08-30T02:47:37.305Z,0.00
2022-08-30T02:48:37.295Z,0.00
2022-08-30T02:49:37.304Z,0.00
2022-08-30T02:50:37.281Z,0.00
2022-08-30T02:51:37.283Z,0.00
2022-08-30T02:52:37.274Z,0.00
2022-08-30T02:53:37.255Z,0.00
2022-08-30T02:54:37.239Z,0.00
2022-08-30T02:55:37.833Z,0.00
2022-08-30T02:56:37.222Z,0.00
2022-08-30T02:57:37.216Z,0.00
2022-08-30T02:58:37.213Z,0.00
2022-08-30T02:59:37.195Z,0.00
2022-08-30T03:00:37.188Z,0.00
2022-08-30T03:01:37.306Z,0.00
2022-08-30T03:02:37.174Z,0.00
2022-08-30T03:03:37.252Z,0.00
2022-08-30T03:04:37.163Z,0.00
2022-08-30T03:05:39.708Z,0.00
2022-08-30T03:06:37.188Z,0.00
2022-08-30T03:07:37.162Z,0.00
2022-08-30T03:08:37.143Z,0.00
2022-08-30T03:09:37.143Z,0.00
2022-08-30T03:10:37.116Z,0.00
2022-08-30T03:11:37.109Z,0.00
2022-08-30T03:12:37.124Z,0.00
2022-08-30T03:13:37.114Z,0.00
2022-08-30T03:14:37.076Z,0.00
2022-08-30T03:15:37.075Z,0.00
2022-08-30T03:16:37.098Z,0.00
2022-08-30T03:17:37.061Z,0.00
2022-08-30T03:18:37.062Z,0.00
2022-08-30T03:19:37.073Z,0.00
2022-08-30T03:20:37.040Z,0.00
2022-08-30T03:21:37.059Z,0.00
2022-08-30T03:22:37.025Z,0.00
2022-08-30T03:23:37.045Z,0.00
2022-08-30T03:24:37.007Z,0.00
2022-08-30T03:25:37.010Z,0.00
2022-08-30T03:26:36.996Z,0.00
2022-08-30T03:27:37.001Z,0.00
2022-08-30T03:28:36.985Z,0.00
2022-08-30T03:29:36.965Z,0.00
2022-08-30T03:30:36.959Z,0.00
2022-08-30T03:31:37.704Z,0.00
2022-08-30T03:32:36.954Z,0.00
2022-08-30T03:33:36.975Z,0.00
2022-08-30T03:34:37.004Z,0.00
2022-08-30T03:35:36.923Z,0.00
2022-08-30T03:36:36.914Z,0.00
2022-08-30T03:37:36.905Z,0.00
2022-08-30T03:38:36.922Z,0.00
2022-08-30T03:39:36.888Z,0.00
2022-08-30T03:40:36.968Z,0.00
2022-08-30T03:41:36.874Z,0.00
2022-08-30T03:42:36.865Z,0.00
2022-08-30T03:43:36.884Z,0.00
2022-08-30T03:44:36.869Z,0.00
2022-08-30T03:45:36.918Z,0.00
2022-08-30T03:46:37.661Z,0.00
2022-08-30T03:47:36.829Z,0.00
2022-08-30T03:48:36.825Z,1.00
2022-08-30T03:49:36.820Z,1.00
2022-08-30T03:50:36.814Z,1.00
2022-08-30T03:51:36.815Z,1.00
2022-08-30T03:52:36.790Z,0.00
2022-08-30T03:53:36.789Z,0.00
2022-08-30T03:54:36.770Z,0.00
2022-08-30T03:55:36.759Z,1.00
2022-08-30T03:56:36.771Z,1.00
2022-08-30T03:57:36.774Z,1.00
2022-08-30T03:58:36.763Z,1.00
2022-08-30T03:59:36.750Z,1.00
2022-08-30T04:00:36.815Z,2.00
2022-08-30T04:01:36.745Z,2.00
2022-08-30T04:02:36.795Z,3.00
2022-08-30T04:03:36.708Z,3.00
2022-08-30T04:04:36.694Z,4.00
2022-08-30T04:05:36.762Z,5.00
2022-08-30T04:06:36.701Z,6.00
2022-08-30T04:07:36.667Z,5.00
2022-08-30T04:08:36.657Z,6.00
2022-08-30T04:09:36.654Z,9.00
2022-08-30T04:10:36.639Z,11.00
2022-08-30T04:11:36.665Z,12.00
2022-08-30T04:12:38.492Z,14.00
2022-08-30T04:13:36.621Z,17.00
2022-08-30T04:14:36.609Z,20.00
2022-08-30T04:15:36.617Z,23.00
2022-08-30T04:16:36.641Z,27.00
2022-08-30T04:17:36.607Z,30.00
2022-08-30T04:18:36.596Z,35.00
2022-08-30T04:19:36.576Z,37.00
2022-08-30T04:20:36.578Z,45.00
2022-08-30T04:21:42.706Z,47.00
2022-08-30T04:22:37.580Z,50.00
2022-08-30T04:23:36.534Z,56.00
2022-08-30T04:24:36.518Z,62.00
2022-08-30T04:25:36.517Z,69.00
2022-08-30T04:26:36.508Z,77.00
2022-08-30T04:27:36.519Z,86.00
2022-08-30T04:28:36.541Z,96.00
2022-08-30T04:29:36.518Z,106.00
2022-08-30T04:30:36.494Z,115.00
2022-08-30T04:31:36.550Z,124.00
2022-08-30T04:32:36.473Z,135.00
2022-08-30T04:33:36.467Z,148.00
2022-08-30T04:34:36.474Z,167.00
2022-08-30T04:35:36.470Z,187.00
2022-08-30T04:36:36.444Z,210.00
2022-08-30T04:37:36.429Z,224.00
2022-08-30T04:38:36.421Z,235.00
2022-08-30T04:39:36.442Z,249.00
2022-08-30T04:40:36.492Z,271.00
2022-08-30T04:41:36.396Z,302.00
2022-08-30T04:42:36.393Z,334.00
2022-08-30T04:43:36.394Z,357.00
2022-08-30T04:44:36.368Z,381.00
2022-08-30T04:45:36.467Z,410.00
2022-08-30T04:46:36.363Z,440.00
2022-08-30T04:47:37.375Z,472.00
2022-08-30T04:48:36.340Z,506.00
2022-08-30T04:49:36.333Z,540.00
2022-08-30T04:50:36.330Z,582.00
2022-08-30T04:51:36.318Z,625.00
2022-08-30T04:52:36.312Z,656.00
2022-08-30T04:53:36.317Z,693.00
2022-08-30T04:54:36.345Z,747.00
2022-08-30T04:55:36.296Z,800.00
2022-08-30T04:56:36.282Z,844.00
2022-08-30T04:57:36.289Z,876.00
2022-08-30T04:58:36.264Z,906.00
2022-08-30T04:59:36.280Z,931.00
2022-08-30T05:00:36.300Z,958.00
2022-08-30T05:01:45.678Z,992.00
2022-08-30T05:02:37.396Z,1017.00
2022-08-30T05:03:36.223Z,1044.00
2022-08-30T05:04:36.237Z,1074.00
2022-08-30T05:05:36.210Z,1105.00
2022-08-30T05:06:36.197Z,1141.00
2022-08-30T05:07:36.219Z,1170.00
2022-08-30T05:08:36.185Z,1203.00
2022-08-30T05:09:36.204Z,1237.00
2022-08-30T05:10:36.167Z,1258.00
2022-08-30T05:11:36.179Z,1266.00
2022-08-30T05:12:36.153Z,1278.00
2022-08-30T05:13:36.995Z,1287.00
2022-08-30T05:14:36.147Z,1305.00
2022-08-30T05:15:36.142Z,1372.00
2022-08-30T05:16:36.212Z,1780.00
2022-08-30T05:17:36.123Z,2143.00
2022-08-30T05:18:36.117Z,1653.00
2022-08-30T05:19:36.134Z,1463.00
2022-08-30T05:20:36.094Z,1607.00
2022-08-30T05:21:36.077Z,1518.00
2022-08-30T05:22:36.077Z,1603.00
2022-08-30T05:23:36.101Z,1716.00
2022-08-30T05:24:36.059Z,1837.00
2022-08-30T05:25:36.076Z,1993.00
2022-08-30T05:26:36.083Z,2622.00
2022-08-30T05:27:37.204Z,3213.00
2022-08-30T05:28:36.036Z,3925.00
2022-08-30T05:29:36.025Z,3505.00
2022-08-30T05:30:36.051Z,3732.00
2022-08-30T05:31:36.077Z,3914.00
2022-08-30T05:32:35.996Z,4246.00
2022-08-30T05:33:38.900Z,3182.00
2022-08-30T05:34:35.978Z,2356.00
2022-08-30T05:35:35.969Z,2252.00
2022-08-30T05:36:35.987Z,3123.00
2022-08-30T05:37:35.991Z,3188.00
2022-08-30T05:38:35.957Z,2787.00
2022-08-30T05:39:45.145Z,2410.00
2022-08-30T05:40:37.028Z,2456.00
2022-08-30T05:41:36.881Z,2504.00
2022-08-30T05:42:35.943Z,2575.00
2022-08-30T05:43:35.914Z,2645.00
2022-08-30T05:44:35.926Z,2700.00
2022-08-30T05:45:35.894Z,3382.00
2022-08-30T05:46:35.896Z,4037.00
2022-08-30T05:47:35.931Z,2910.00
2022-08-30T05:48:35.882Z,5183.00
2022-08-30T05:49:35.866Z,3019.00
2022-08-30T05:50:39.438Z,5036.00
2022-08-30T05:51:35.869Z,2422.00
2022-08-30T05:52:36.871Z,2271.00
2022-08-30T05:53:35.861Z,4521.00
2022-08-30T05:54:35.844Z,2056.00
2022-08-30T05:55:35.820Z,2090.00
2022-08-30T05:56:35.816Z,1874.00
2022-08-30T05:57:35.799Z,1745.00
2022-08-30T05:58:35.795Z,1694.00
2022-08-30T05:59:35.819Z,1662.00
2022-08-30T06:00:35.775Z,1632.00
2022-08-30T06:01:35.833Z,1597.00
2022-08-30T06:02:35.790Z,1572.00
2022-08-30T06:03:35.751Z,1560.00
2022-08-30T06:04:35.746Z,1548.00
2022-08-30T06:05:35.791Z,1546.00
2022-08-30T06:06:35.726Z,1559.00
2022-08-30T06:07:35.720Z,1593.00
2022-08-30T06:08:35.715Z,1652.00
2022-08-30T06:09:35.705Z,1746.00
2022-08-30T06:10:35.700Z,1853.00
2022-08-30T06:11:35.718Z,2014.00
2022-08-30T06:12:35.696Z,2194.00
2022-08-30T06:13:35.665Z,2377.00
2022-08-30T06:14:35.658Z,2571.00
2022-08-30T06:15:35.649Z,2770.00
2022-08-30T06:16:35.747Z,2996.00
2022-08-30T06:17:35.737Z,3289.00
2022-08-30T06:18:35.627Z,17987.00
2022-08-30T06:19:35.627Z,25327.00
2022-08-30T06:20:35.617Z,19058.00
2022-08-30T06:21:35.612Z,17135.00
2022-08-30T06:22:35.600Z,19099.00
2022-08-30T06:23:35.615Z,21473.00
2022-08-30T06:24:54.022Z,20320.00
2022-08-30T06:25:42.174Z,19392.00
2022-08-30T06:26:36.574Z,19231.00
2022-08-30T06:27:35.611Z,20014.00
2022-08-30T06:28:35.551Z,19413.00
2022-08-30T06:29:35.561Z,20698.00
2022-08-30T06:30:35.537Z,20751.00
2022-08-30T06:31:35.545Z,21963.00
2022-08-30T06:32:35.530Z,22373.00
2022-08-30T06:33:35.500Z,20569.00
2022-08-30T06:34:35.845Z,18339.00
2022-08-30T06:35:46.814Z,18772.00
2022-08-30T06:36:36.478Z,19024.00
2022-08-30T06:37:35.465Z,20925.00
2022-08-30T06:38:35.461Z,21494.00
2022-08-30T06:39:35.509Z,22223.00
2022-08-30T06:40:35.521Z,9977.00
2022-08-30T06:41:35.429Z,7513.00
2022-08-30T06:42:35.422Z,6134.00
2022-08-30T06:43:35.410Z,5290.00
2022-08-30T06:44:35.408Z,5035.00
2022-08-30T06:45:35.411Z,5102.00
2022-08-30T06:46:35.609Z,5919.00
2022-08-30T06:47:35.383Z,6144.00
2022-08-30T06:48:35.375Z,6864.00
2022-08-30T06:49:35.374Z,5930.00
2022-08-30T06:50:35.359Z,5388.00
2022-08-30T06:51:35.354Z,5436.00
2022-08-30T06:52:35.371Z,6250.00
2022-08-30T06:53:35.337Z,5225.00
2022-08-30T06:54:35.326Z,4977.00
2022-08-30T06:55:35.317Z,4850.00
2022-08-30T06:56:36.177Z,4929.00
2022-08-30T06:57:35.321Z,5998.00
2022-08-30T06:58:35.314Z,6067.00
2022-08-30T07:01:03.405Z,11093.00
2022-08-30T07:02:03.985Z,8502.00
2022-08-30T07:03:03.642Z,13018.00
2022-08-30T07:04:04.144Z,7957.00
2022-08-30T07:05:02.225Z,7760.00
2022-08-30T07:06:02.219Z,11815.00
2022-08-30T07:07:02.226Z,8218.00
2022-08-30T07:08:02.206Z,8120.00
2022-08-30T07:09:02.198Z,7617.00
2022-08-30T07:10:02.233Z,8677.00
2022-08-30T07:11:02.176Z,20881.00
2022-08-30T07:12:02.228Z,8528.00
2022-08-30T07:13:02.170Z,7358.00
2022-08-30T07:14:02.157Z,6901.00
2022-08-30T07:15:02.146Z,15173.00
2022-08-30T07:16:02.223Z,7874.00
2022-08-30T07:17:02.149Z,14116.00
2022-08-30T07:18:02.118Z,16412.00
2022-08-30T07:19:02.137Z,9656.00
2022-08-30T07:20:02.102Z,7571.00
2022-08-30T07:21:02.090Z,7559.00
2022-08-30T07:22:02.095Z,8230.00
2022-08-30T07:23:02.080Z,8881.00
2022-08-30T07:24:02.074Z,9266.00
2022-08-30T07:25:02.092Z,9889.00
2022-08-30T07:26:02.067Z,9965.00
2022-08-30T07:27:02.052Z,9523.00
2022-08-30T07:28:02.041Z,8922.00
2022-08-30T07:29:02.032Z,10050.00
2022-08-30T07:30:02.074Z,12824.00
2022-08-30T07:31:02.074Z,10089.00
2022-08-30T07:32:02.002Z,8835.00
2022-08-30T07:33:02.005Z,9202.00
2022-08-30T07:34:01.979Z,7709.00
2022-08-30T07:35:01.982Z,7021.00
2022-08-30T07:36:01.968Z,6830.00
2022-08-30T07:37:01.988Z,7138.00
2022-08-30T07:38:01.955Z,6816.00
2022-08-30T07:39:01.946Z,6943.00
2022-08-30T07:40:01.984Z,7344.00
2022-08-30T07:41:01.922Z,7458.00
2022-08-30T07:42:01.937Z,7954.00
2022-08-30T07:43:02.011Z,10198.00
2022-08-30T07:44:01.897Z,19283.00
2022-08-30T07:45:01.900Z,9746.00
2022-08-30T07:46:01.950Z,9689.00
2022-08-30T07:47:01.893Z,11929.00
2022-08-30T07:48:01.887Z,8931.00
2022-08-30T07:49:01.921Z,8627.00
2022-08-30T07:50:01.854Z,10762.00
2022-08-30T07:51:05.188Z,9703.00
2022-08-30T07:52:01.832Z,7475.00
2022-08-30T07:53:01.885Z,6852.00
2022-08-30T07:54:01.830Z,5985.00
2022-08-30T07:55:01.804Z,5479.00
2022-08-30T07:56:01.797Z,5243.00
2022-08-30T07:57:01.790Z,5135.00
2022-08-30T07:59:01.780Z,5261.00
2022-08-30T08:00:01.784Z,5376.00
2022-08-30T08:01:01.750Z,5751.00
2022-08-30T08:02:01.821Z,8332.00
2022-08-30T08:03:01.812Z,8506.00
2022-08-30T08:04:01.766Z,8783.00
2022-08-30T08:05:01.736Z,9069.00
2022-08-30T08:06:01.729Z,9155.00
2022-08-30T08:07:01.749Z,9195.00
2022-08-30T08:08:01.711Z,9060.00
2022-08-30T08:09:01.709Z,9332.00
2022-08-30T08:10:01.711Z,9368.00
2022-08-30T08:11:01.680Z,9398.00
2022-08-30T08:12:01.725Z,9338.00
2022-08-30T08:13:01.672Z,9268.00
2022-08-30T08:14:01.685Z,9331.00
2022-08-30T08:15:04.162Z,9608.00
2022-08-30T08:16:02.729Z,9700.00
2022-08-30T08:17:01.620Z,9626.00
2022-08-30T08:18:01.639Z,9568.00
2022-08-30T08:19:01.619Z,9574.00
2022-08-30T08:20:01.603Z,9436.00
2022-08-30T08:21:01.594Z,9517.00
2022-08-30T08:22:19.944Z,9472.00
2022-08-30T08:23:02.617Z,9523.00
2022-08-30T08:24:01.568Z,9589.00
2022-08-30T08:25:01.565Z,9602.00
2022-08-30T08:26:01.573Z,9535.00
2022-08-30T08:27:01.544Z,9453.00
2022-08-30T08:28:01.547Z,9359.00
2022-08-30T08:29:01.544Z,9481.00
2022-08-30T08:30:01.517Z,9532.00
2022-08-30T08:31:01.535Z,9568.00
2022-08-30T08:32:01.496Z,9571.00
2022-08-30T08:33:01.565Z,9575.00
2022-08-30T08:35:01.472Z,9663.00
2022-08-30T08:36:01.803Z,9718.00
2022-08-30T08:37:01.462Z,9438.00
2022-08-30T08:38:01.448Z,9707.00
2022-08-30T08:39:01.448Z,9776.00
2022-08-30T08:40:01.491Z,10041.00
2022-08-30T08:41:01.428Z,10136.00
2022-08-30T08:42:01.411Z,10239.00
2022-08-30T08:43:01.409Z,10233.00
2022-08-30T08:44:01.394Z,10436.00
2022-08-30T08:45:01.394Z,10521.00
2022-08-30T08:46:01.431Z,10500.00
2022-08-30T08:47:01.386Z,10620.00
2022-08-30T08:48:01.419Z,10235.00
2022-08-30T08:49:01.367Z,10205.00
2022-08-30T08:50:01.370Z,11095.00
2022-08-30T08:51:02.789Z,10572.00
2022-08-30T08:52:01.360Z,10958.00
2022-08-30T08:53:01.328Z,11148.00
2022-08-30T08:54:01.339Z,12138.00
2022-08-30T08:55:01.318Z,12355.00
2022-08-30T08:56:01.316Z,12910.00
2022-08-30T08:57:01.330Z,13801.00
2022-08-30T08:58:01.290Z,13283.00
2022-08-30T08:59:01.290Z,14087.00
2022-08-30T09:00:01.277Z,14057.00
2022-08-30T09:01:01.273Z,13457.00
2022-08-30T09:02:01.343Z,12533.00
2022-08-30T09:03:01.259Z,11883.00
2022-08-30T09:04:01.241Z,11022.00
2022-08-30T09:05:01.267Z,10605.00
2022-08-30T09:06:01.217Z,10754.00
2022-08-30T09:07:01.219Z,11470.00
2022-08-30T09:08:01.223Z,11213.00
2022-08-30T09:09:01.201Z,11161.00
2022-08-30T09:10:01.186Z,11020.00
2022-08-30T09:11:01.182Z,11403.00
2022-08-30T09:12:01.177Z,12180.00
2022-08-30T09:13:02.291Z,12692.00
2022-08-30T09:14:01.161Z,12603.00
2022-08-30T09:15:01.154Z,12984.00
2022-08-30T09:16:01.191Z,13457.00
2022-08-30T09:17:02.649Z,13501.00
2022-08-30T09:18:01.130Z,15022.00
2022-08-30T09:19:01.156Z,14294.00
2022-08-30T09:20:01.121Z,14681.00
2022-08-30T09:21:01.118Z,14095.00
2022-08-30T09:22:01.099Z,13392.00
2022-08-30T09:23:01.091Z,13456.00
2022-08-30T09:24:01.090Z,12170.00
2022-08-30T09:25:01.108Z,11351.00
2022-08-30T09:26:01.078Z,11096.00
2022-08-30T09:27:01.072Z,10918.00
2022-08-30T09:28:01.071Z,10759.00
2022-08-30T09:29:01.117Z,10943.00
2022-08-30T09:30:01.064Z,11635.00
2022-08-30T09:31:01.101Z,12753.00
2022-08-30T09:32:22.454Z,11690.00
2022-08-30T09:33:02.019Z,11516.00
2022-08-30T09:34:01.035Z,11373.00
2022-08-30T09:35:01.027Z,12540.00
2022-08-30T09:36:00.994Z,12086.00
2022-08-30T09:37:00.988Z,11969.00
2022-08-30T09:38:00.972Z,12907.00
2022-08-30T09:39:00.970Z,12864.00
2022-08-30T09:40:01.076Z,11844.00
2022-08-30T09:41:00.965Z,12241.00
2022-08-30T09:42:00.947Z,11631.00
2022-08-30T09:43:00.937Z,12011.00
2022-08-30T09:44:00.926Z,11818.00
2022-08-30T09:45:00.937Z,12173.00
2022-08-30T09:46:01.007Z,12314.00
2022-08-30T09:47:00.914Z,11941.00
2022-08-30T09:48:00.895Z,10884.00
2022-08-30T09:49:00.895Z,10906.00
2022-08-30T09:50:00.876Z,12101.00
2022-08-30T09:51:00.884Z,12514.00
2022-08-30T09:52:00.910Z,12819.00
2022-08-30T09:53:00.879Z,12078.00
2022-08-30T09:54:17.037Z,13038.00
2022-08-30T09:55:01.839Z,13192.00
2022-08-30T09:56:00.832Z,11780.00
2022-08-30T09:57:00.831Z,11234.00
2022-08-30T09:58:00.840Z,12649.00
2022-08-30T09:59:00.813Z,11858.00
2022-08-30T10:00:00.804Z,13233.00
2022-08-30T10:01:00.829Z,13082.00
2022-08-30T10:02:00.784Z,12673.00
2022-08-30T10:03:00.782Z,12047.00
2022-08-30T10:04:00.795Z,11887.00
2022-08-30T10:05:00.773Z,11562.00
2022-08-30T10:06:00.753Z,11372.00
2022-08-30T10:07:00.743Z,11454.00
2022-08-30T10:08:00.737Z,11151.00
2022-08-30T10:09:00.747Z,11859.00
2022-08-30T10:10:00.743Z,12419.00
2022-08-30T10:11:00.720Z,12392.00
2022-08-30T10:12:00.709Z,12053.00
2022-08-30T10:13:00.701Z,11872.00
2022-08-30T10:14:00.696Z,11567.00
2022-08-30T10:15:00.705Z,11265.00
2022-08-30T10:16:00.687Z,10678.00
2022-08-30T10:17:00.661Z,10271.00
2022-08-30T10:18:00.655Z,10040.00
2022-08-30T10:19:00.647Z,9959.00
2022-08-30T10:20:00.665Z,9929.00
2022-08-30T10:21:00.631Z,10275.00
2022-08-30T10:22:00.620Z,10385.00
2022-08-30T10:23:00.631Z,10422.00
2022-08-30T10:24:00.605Z,10270.00
2022-08-30T10:25:00.599Z,10114.00
2022-08-30T10:26:00.591Z,9968.00
2022-08-30T10:27:00.580Z,9760.00
2022-08-30T10:28:00.686Z,9796.00
2022-08-30T10:29:00.566Z,9784.00
2022-08-30T10:30:00.558Z,9733.00
2022-08-30T10:31:00.549Z,9555.00
2022-08-30T10:32:00.548Z,9490.00
2022-08-30T10:33:00.551Z,9414.00
2022-08-30T10:34:00.517Z,9397.00
2022-08-30T10:35:00.511Z,9410.00
2022-08-30T10:36:00.509Z,9363.00
2022-08-30T10:37:00.493Z,9301.00
2022-08-30T10:38:00.536Z,9259.00
2022-08-30T10:39:00.509Z,9254.00
2022-08-30T10:40:00.525Z,9227.00
2022-08-30T10:41:00.489Z,9137.00
2022-08-30T10:42:00.500Z,8983.00
2022-08-30T10:43:00.453Z,8769.00
2022-08-30T10:44:00.443Z,8555.00
2022-08-30T10:45:00.459Z,8435.00
2022-08-30T10:46:00.437Z,8331.00
2022-08-30T10:47:00.426Z,8233.00
2022-08-30T10:48:00.414Z,8081.00
2022-08-30T10:49:00.434Z,7742.00
2022-08-30T10:50:00.397Z,7609.00
2022-08-30T10:51:00.385Z,7780.00
2022-08-30T10:52:00.389Z,7682.00
2022-08-30T10:53:00.375Z,7504.00
2022-08-30T10:54:00.417Z,7764.00
2022-08-30T10:55:00.591Z,8076.00
2022-08-30T10:56:00.346Z,8226.00
2022-08-30T10:57:00.446Z,8301.00
2022-08-30T10:58:00.334Z,8367.00
2022-08-30T10:59:00.321Z,8390.00
2022-08-30T11:00:00.346Z,8456.00
2022-08-30T11:01:00.345Z,8419.00
2022-08-30T11:02:00.307Z,8348.00
2022-08-30T11:03:00.292Z,8390.00
2022-08-30T11:04:00.286Z,8377.00
2022-08-30T11:05:00.746Z,8343.00
2022-08-30T11:06:00.296Z,8395.00
2022-08-30T11:07:00.301Z,8420.00
2022-08-30T11:08:00.253Z,8458.00
2022-08-30T11:09:00.262Z,8567.00
2022-08-30T11:10:00.240Z,8678.00
2022-08-30T11:11:00.229Z,8803.00
2022-08-30T11:12:00.288Z,8880.00
2022-08-30T11:13:00.687Z,8977.00
2022-08-30T11:14:03.604Z,9084.00
2022-08-30T11:15:01.191Z,9196.00
2022-08-30T11:16:00.832Z,9265.00
2022-08-30T11:17:00.186Z,9376.00
2022-08-30T11:18:00.179Z,9502.00
2022-08-30T11:19:00.164Z,9632.00
2022-08-30T11:20:00.178Z,9848.00
2022-08-30T11:21:00.170Z,9931.00
2022-08-30T11:22:00.144Z,10340.00
2022-08-30T11:23:00.163Z,10512.00
2022-08-30T11:24:00.120Z,10568.00
2022-08-30T11:25:00.136Z,10649.00
2022-08-30T11:26:00.136Z,10546.00
2022-08-30T11:27:00.159Z,10501.00
2022-08-30T11:28:00.106Z,10379.00
2022-08-30T11:29:00.162Z,10185.00
2022-08-30T11:30:00.078Z,10330.00
2022-08-30T11:31:00.080Z,10212.00
2022-08-30T11:32:00.106Z,10211.00
2022-08-30T11:33:00.059Z,10208.00
2022-08-30T11:34:01.001Z,10331.00
2022-08-30T11:35:00.046Z,10384.00
2022-08-30T11:36:00.027Z,10503.00
2022-08-30T11:37:00.062Z,10582.00
2022-08-30T11:38:00.051Z,10481.00
2022-08-30T11:39:00.011Z,10293.00
2022-08-30T11:40:03.782Z,10078.00
2022-08-30T11:41:00.015Z,9931.00
2022-08-30T11:42:00.003Z,9831.00
2022-08-30T11:43:00.039Z,9599.00
2022-08-30T11:43:59.976Z,8560.00
2022-08-30T11:44:59.974Z,8231.00
2022-08-30T11:45:59.958Z,8210.00
2022-08-30T11:46:59.941Z,9145.00
2022-08-30T11:48:00.089Z,9412.00
2022-08-30T11:48:59.919Z,9506.00
2022-08-30T11:49:59.931Z,9536.00
2022-08-30T11:50:59.902Z,9470.00
2022-08-30T11:52:26.731Z,9341.00
2022-08-30T11:53:01.109Z,9394.00
2022-08-30T11:53:59.881Z,9287.00
2022-08-30T11:54:59.897Z,9264.00
2022-08-30T11:55:59.897Z,9362.00
2022-08-30T11:56:59.871Z,9342.00
2022-08-30T11:57:59.855Z,9253.00
2022-08-30T11:58:59.846Z,9086.00
2022-08-30T11:59:59.832Z,9053.00
2022-08-30T12:00:59.874Z,8997.00
2022-08-30T12:01:59.895Z,8981.00
2022-08-30T12:02:59.932Z,8971.00
2022-08-30T12:03:59.801Z,8854.00
2022-08-30T12:04:59.785Z,8832.00
2022-08-30T12:05:59.940Z,8753.00
2022-08-30T12:06:59.775Z,8569.00
2022-08-30T12:07:59.779Z,8465.00
2022-08-30T12:09:02.350Z,8383.00
2022-08-30T12:09:59.758Z,7755.00
2022-08-30T12:10:59.788Z,7178.00
2022-08-30T12:11:59.748Z,6932.00
2022-08-30T12:12:59.743Z,6760.00
2022-08-30T12:13:59.743Z,6619.00
2022-08-30T12:14:59.721Z,6572.00
2022-08-30T12:15:59.704Z,6550.00
2022-08-30T12:16:59.807Z,6517.00
2022-08-30T12:17:59.699Z,6518.00
2022-08-30T12:18:59.678Z,6573.00
2022-08-30T12:19:59.677Z,6605.00
2022-08-30T12:20:59.656Z,6603.00
2022-08-30T12:21:59.671Z,6662.00
2022-08-30T12:22:59.677Z,7250.00
2022-08-30T12:23:59.641Z,8256.00
2022-08-30T12:24:59.649Z,8396.00
2022-08-30T12:25:59.623Z,8324.00
2022-08-30T12:26:59.718Z,8229.00
2022-08-30T12:28:02.059Z,8237.00
2022-08-30T12:28:59.599Z,8306.00